sensor_id;sensor_type;location;lat;lon;timestamp;pressure;altitude;pressure_sealevel;temperature;humidity
75991;BME280;64673;52.276;10.560;2023-08-06T00:01:59;99960.69;;;14.86;100.00
75991;BME280;64673;52.276;10.560;2023-08-06T00:04:24;99962.75;;;14.81;100.00
75991;BME280;64673;52.276;10.560;2023-08-06T00:06:49;99949.59;;;14.74;100.00
75991;BME280;64673;52.276;10.560;2023-08-06T00:09:14;99945.13;;;14.70;100.00
75991;BME280;64673;52.276;10.560;2023-08-06T00:11:40;99949.00;;;14.77;100.00
75991;BME280;64673;52.276;10.560;2023-08-06T00:14:09;99942.53;;;14.64;100.00
75991;BME280;64673;52.276;10.560;2023-08-06T00:16:34;99916.50;;;14.63;100.00
75991;BME280;64673;52.276;10.560;2023-08-06T00:19:00;99930.44;;;14.71;100.00
75991;BME280;64673;52.276;10.560;2023-08-06T00:21:25;99924.22;;;14.70;100.00
75991;BME280;64673;52.276;10.560;2023-08-06T00:23:50;99920.41;;;14.71;100.00
75991;BME280;64673;52.276;10.560;2023-08-06T00:26:17;99912.88;;;14.68;100.00
75991;BME280;64673;52.276;10.560;2023-08-06T00:28:42;99911.91;;;14.73;100.00
75991;BME280;64673;52.276;10.560;2023-08-06T00:31:08;99886.03;;;14.67;100.00
75991;BME280;64673;52.276;10.560;2023-08-06T00:33:33;99892.00;;;14.86;100.00
75991;BME280;64673;52.276;10.560;2023-08-06T00:35:58;99881.31;;;14.81;100.00
75991;BME280;64673;52.276;10.560;2023-08-06T00:38:24;99886.56;;;14.77;100.00
75991;BME280;64673;52.276;10.560;2023-08-06T00:40:49;99887.19;;;14.74;100.00
75991;BME280;64673;52.276;10.560;2023-08-06T00:43:14;99874.91;;;14.77;100.00
75991;BME280;64673;52.276;10.560;2023-08-06T00:45:40;99871.38;;;14.76;100.00
75991;BME280;64673;52.276;10.560;2023-08-06T00:48:05;99860.19;;;14.69;100.00
75991;BME280;64673;52.276;10.560;2023-08-06T00:50:32;99866.25;;;14.75;100.00
75991;BME280;64673;52.276;10.560;2023-08-06T00:52:57;99870.25;;;14.69;100.00
75991;BME280;64673;52.276;10.560;2023-08-06T00:55:23;99851.38;;;14.63;100.00
75991;BME280;64673;52.276;10.560;2023-08-06T00:57:51;99847.84;;;14.63;100.00
75991;BME280;64673;52.276;10.560;2023-08-06T01:00:19;99842.78;;;14.70;100.00
75991;BME280;64673;52.276;10.560;2023-08-06T01:02:45;99844.53;;;14.75;100.00
75991;BME280;64673;52.276;10.560;2023-08-06T01:05:11;99840.56;;;14.72;100.00
75991;BME280;64673;52.276;10.560;2023-08-06T01:08:02;99844.81;;;14.64;100.00
75991;BME280;64673;52.276;10.560;2023-08-06T01:13:46;99848.38;;;14.74;100.00
75991;BME280;64673;52.276;10.560;2023-08-06T01:16:15;99842.94;;;14.74;100.00
75991;BME280;64673;52.276;10.560;2023-08-06T01:18:42;99835.56;;;14.65;100.00
75991;BME280;64673;52.276;10.560;2023-08-06T01:21:11;99828.53;;;14.56;100.00
75991;BME280;64673;52.276;10.560;2023-08-06T01:23:36;99837.34;;;14.61;100.00
75991;BME280;64673;52.276;10.560;2023-08-06T01:26:10;99843.22;;;14.63;100.00
75991;BME280;64673;52.276;10.560;2023-08-06T01:31:15;99841.56;;;14.45;100.00
75991;BME280;64673;52.276;10.560;2023-08-06T01:33:45;99840.94;;;14.48;100.00
75991;BME280;64673;52.276;10.560;2023-08-06T01:36:17;99844.81;;;14.64;100.00
75991;BME280;64673;52.276;10.560;2023-08-06T01:38:44;99842.81;;;14.79;100.00
75991;BME280;64673;52.276;10.560;2023-08-06T01:41:10;99817.47;;;14.52;100.00
75991;BME280;64673;52.276;10.560;2023-08-06T01:43:35;99825.00;;;14.55;100.00
75991;BME280;64673;52.276;10.560;2023-08-06T01:46:00;99818.47;;;14.56;100.00
75991;BME280;64673;52.276;10.560;2023-08-06T01:48:26;99820.19;;;14.52;100.00
75991;BME280;64673;52.276;10.560;2023-08-06T01:50:51;99811.22;;;14.43;100.00
75991;BME280;64673;52.276;10.560;2023-08-06T01:53:17;99805.19;;;14.46;100.00
75991;BME280;64673;52.276;10.560;2023-08-06T01:55:47;99797.59;;;14.35;100.00
75991;BME280;64673;52.276;10.560;2023-08-06T01:58:13;99798.78;;;14.42;100.00
75991;BME280;64673;52.276;10.560;2023-08-06T02:00:38;99799.41;;;14.39;100.00
75991;BME280;64673;52.276;10.560;2023-08-06T02:03:03;99790.63;;;14.42;100.00
75991;BME280;64673;52.276;10.560;2023-08-06T02:05:29;99791.75;;;14.41;100.00
75991;BME280;64673;52.276;10.560;2023-08-06T02:07:54;99788.34;;;14.36;100.00
75991;BME280;64673;52.276;10.560;2023-08-06T02:10:19;99791.38;;;14.34;100.00
75991;BME280;64673;52.276;10.560;2023-08-06T02:12:45;99796.97;;;14.38;100.00
75991;BME280;64673;52.276;10.560;2023-08-06T02:15:10;99792.66;;;14.37;100.00
75991;BME280;64673;52.276;10.560;2023-08-06T02:17:35;99796.06;;;14.42;100.00
75991;BME280;64673;52.276;10.560;2023-08-06T02:20:00;99800.88;;;14.45;100.00
75991;BME280;64673;52.276;10.560;2023-08-06T02:22:26;99793.91;;;14.30;100.00
75991;BME280;64673;52.276;10.560;2023-08-06T02:24:52;99789.78;;;14.33;100.00
75991;BME280;64673;52.276;10.560;2023-08-06T02:27:17;99794.56;;;14.36;100.00
75991;BME280;64673;52.276;10.560;2023-08-06T02:29:42;99792.97;;;14.35;100.00
75991;BME280;64673;52.276;10.560;2023-08-06T02:32:07;99791.28;;;14.39;100.00
75991;BME280;64673;52.276;10.560;2023-08-06T02:34:33;99784.91;;;14.44;100.00
75991;BME280;64673;52.276;10.560;2023-08-06T02:36:58;99779.09;;;14.37;100.00
75991;BME280;64673;52.276;10.560;2023-08-06T02:39:23;99783.72;;;14.36;100.00
75991;BME280;64673;52.276;10.560;2023-08-06T02:41:49;99775.81;;;14.40;100.00
75991;BME280;64673;52.276;10.560;2023-08-06T02:44:14;99763.63;;;14.37;100.00
75991;BME280;64673;52.276;10.560;2023-08-06T02:46:39;99760.78;;;14.42;100.00
75991;BME280;64673;52.276;10.560;2023-08-06T02:49:06;99748.97;;;14.38;100.00
75991;BME280;64673;52.276;10.560;2023-08-06T02:51:31;99747.34;;;14.37;100.00
75991;BME280;64673;52.276;10.560;2023-08-06T02:53:57;99748.34;;;14.41;100.00
75991;BME280;64673;52.276;10.560;2023-08-06T02:56:22;99750.88;;;14.38;100.00
75991;BME280;64673;52.276;10.560;2023-08-06T02:58:47;99753.41;;;14.34;100.00
75991;BME280;64673;52.276;10.560;2023-08-06T03:01:13;99751.78;;;14.33;100.00
75991;BME280;64673;52.276;10.560;2023-08-06T03:03:39;99748.28;;;14.33;100.00
75991;BME280;64673;52.276;10.560;2023-08-06T03:06:04;99736.16;;;14.30;100.00
75991;BME280;64673;52.276;10.560;2023-08-06T03:08:30;99732.00;;;14.33;100.00
75991;BME280;64673;52.276;10.560;2023-08-06T03:10:55;99730.09;;;14.33;100.00
75991;BME280;64673;52.276;10.560;2023-08-06T03:13:21;99731.06;;;14.37;100.00
75991;BME280;64673;52.276;10.560;2023-08-06T03:15:57;99727.88;;;14.35;100.00
75991;BME280;64673;52.276;10.560;2023-08-06T03:18:22;99732.50;;;14.35;100.00
75991;BME280;64673;52.276;10.560;2023-08-06T03:20:48;99728.88;;;14.39;100.00
75991;BME280;64673;52.276;10.560;2023-08-06T03:23:13;99727.88;;;14.35;100.00
75991;BME280;64673;52.276;10.560;2023-08-06T03:25:39;99724.97;;;14.32;100.00
75991;BME280;64673;52.276;10.560;2023-08-06T03:28:04;99735.69;;;14.28;100.00
75991;BME280;64673;52.276;10.560;2023-08-06T03:30:29;99736.50;;;14.37;100.00
75991;BME280;64673;52.276;10.560;2023-08-06T03:32:55;99739.75;;;14.39;100.00
75991;BME280;64673;52.276;10.560;2023-08-06T03:35:20;99734.31;;;14.39;100.00
75991;BME280;64673;52.276;10.560;2023-08-06T03:37:46;99740.06;;;14.46;100.00
75991;BME280;64673;52.276;10.560;2023-08-06T03:40:11;99741.63;;;14.39;100.00
75991;BME280;64673;52.276;10.560;2023-08-06T03:42:37;99737.47;;;14.41;100.00
75991;BME280;64673;52.276;10.560;2023-08-06T03:45:02;99730.28;;;14.37;100.00
75991;BME280;64673;52.276;10.560;2023-08-06T03:47:28;99730.09;;;14.33;100.00
75991;BME280;64673;52.276;10.560;2023-08-06T03:49:53;99725.66;;;14.37;100.00
75991;BME280;64673;52.276;10.560;2023-08-06T03:52:18;99720.03;;;14.34;100.00
75991;BME280;64673;52.276;10.560;2023-08-06T03:54:44;99723.56;;;14.34;100.00
75991;BME280;64673;52.276;10.560;2023-08-06T03:57:09;99720.84;;;14.34;100.00
75991;BME280;64673;52.276;10.560;2023-08-06T03:59:35;99716.41;;;14.38;100.00
75991;BME280;64673;52.276;10.560;2023-08-06T04:02:00;99711.34;;;14.45;100.00
75991;BME280;64673;52.276;10.560;2023-08-06T04:04:26;99705.41;;;14.43;100.00
75991;BME280;64673;52.276;10.560;2023-08-06T04:06:51;99708.88;;;14.35;100.00
75991;BME280;64673;52.276;10.560;2023-08-06T04:09:16;99710.16;;;14.29;100.00
75991;BME280;64673;52.276;10.560;2023-08-06T04:11:42;99712.09;;;14.37;100.00
75991;BME280;64673;52.276;10.560;2023-08-06T04:14:07;99715.78;;;14.41;100.00
75991;BME280;64673;52.276;10.560;2023-08-06T04:16:32;99719.63;;;14.40;100.00
75991;BME280;64673;52.276;10.560;2023-08-06T04:19:01;99721.34;;;14.36;100.00
75991;BME280;64673;52.276;10.560;2023-08-06T04:21:26;99721.00;;;14.29;100.00
75991;BME280;64673;52.276;10.560;2023-08-06T04:23:51;99720.50;;;14.27;100.00
75991;BME280;64673;52.276;10.560;2023-08-06T04:26:17;99720.81;;;14.25;100.00
75991;BME280;64673;52.276;10.560;2023-08-06T04:28:42;99722.25;;;14.23;100.00
75991;BME280;64673;52.276;10.560;2023-08-06T04:31:07;99715.72;;;14.24;100.00
75991;BME280;64673;52.276;10.560;2023-08-06T04:33:33;99719.53;;;14.23;100.00
75991;BME280;64673;52.276;10.560;2023-08-06T04:35:59;99710.84;;;14.43;100.00
75991;BME280;64673;52.276;10.560;2023-08-06T04:38:25;99723.06;;;14.32;100.00
75991;BME280;64673;52.276;10.560;2023-08-06T04:40:50;99716.69;;;14.28;100.00
75991;BME280;64673;52.276;10.560;2023-08-06T04:43:16;99721.47;;;14.31;100.00
75991;BME280;64673;52.276;10.560;2023-08-06T04:45:52;99719.44;;;14.37;100.00
75991;BME280;64673;52.276;10.560;2023-08-06T04:48:18;99710.16;;;14.29;100.00
75991;BME280;64673;52.276;10.560;2023-08-06T04:50:44;99714.81;;;14.37;100.00
75991;BME280;64673;52.276;10.560;2023-08-06T04:53:10;99686.03;;;14.19;100.00
75991;BME280;64673;52.276;10.560;2023-08-06T04:55:36;99699.16;;;14.34;100.00
75991;BME280;64673;52.276;10.560;2023-08-06T04:58:01;99713.06;;;14.41;100.00
75991;BME280;64673;52.276;10.560;2023-08-06T05:00:27;99707.34;;;14.43;100.00
75991;BME280;64673;52.276;10.560;2023-08-06T05:02:52;99706.09;;;14.49;100.00
75991;BME280;64673;52.276;10.560;2023-08-06T05:05:17;99711.66;;;14.52;100.00
75991;BME280;64673;52.276;10.560;2023-08-06T05:07:42;99705.78;;;14.50;100.00
75991;BME280;64673;52.276;10.560;2023-08-06T05:10:08;99702.41;;;14.45;100.00
75991;BME280;64673;52.276;10.560;2023-08-06T05:12:34;99692.22;;;14.50;100.00
75991;BME280;64673;52.276;10.560;2023-08-06T05:14:59;99692.22;;;14.50;100.00
75991;BME280;64673;52.276;10.560;2023-08-06T05:17:24;99700.81;;;14.52;100.00
75991;BME280;64673;52.276;10.560;2023-08-06T05:19:50;99694.28;;;14.53;100.00
75991;BME280;64673;52.276;10.560;2023-08-06T05:22:15;99691.25;;;14.55;100.00
75991;BME280;64673;52.276;10.560;2023-08-06T05:24:41;99699.06;;;14.65;100.00
75991;BME280;64673;52.276;10.560;2023-08-06T05:27:06;99698.63;;;14.72;100.00
75991;BME280;64673;52.276;10.560;2023-08-06T05:29:31;99686.63;;;14.64;100.00
75991;BME280;64673;52.276;10.560;2023-08-06T05:31:57;99697.47;;;14.73;100.00
75991;BME280;64673;52.276;10.560;2023-08-06T05:34:22;99687.59;;;14.77;100.00
75991;BME280;64673;52.276;10.560;2023-08-06T05:36:47;99695.75;;;14.77;100.00
75991;BME280;64673;52.276;10.560;2023-08-06T05:39:13;99689.50;;;14.85;100.00
75991;BME280;64673;52.276;10.560;2023-08-06T05:41:38;99690.31;;;14.94;100.00
75991;BME280;64673;52.276;10.560;2023-08-06T05:44:03;99682.16;;;14.94;100.00
75991;BME280;64673;52.276;10.560;2023-08-06T05:46:29;99685.84;;;14.98;100.00
75991;BME280;64673;52.276;10.560;2023-08-06T05:48:54;99681.88;;;15.04;100.00
75991;BME280;64673;52.276;10.560;2023-08-06T05:51:19;99678.34;;;15.04;100.00
75991;BME280;64673;52.276;10.560;2023-08-06T05:53:45;99681.69;;;15.09;100.00
75991;BME280;64673;52.276;10.560;2023-08-06T05:56:12;99678.97;;;15.09;100.00
75991;BME280;64673;52.276;10.560;2023-08-06T05:58:37;99679.31;;;15.25;100.00
75991;BME280;64673;52.276;10.560;2023-08-06T06:01:03;99677.69;;;15.24;100.00
75991;BME280;64673;52.276;10.560;2023-08-06T06:03:28;99680.56;;;15.27;100.00
75991;BME280;64673;52.276;10.560;2023-08-06T06:05:53;99683.94;;;15.24;100.00
75991;BME280;64673;52.276;10.560;2023-08-06T06:08:19;99688.56;;;15.32;100.00
75991;BME280;64673;52.276;10.560;2023-08-06T06:10:44;99678.28;;;15.38;100.00
75991;BME280;64673;52.276;10.560;2023-08-06T06:13:09;99685.03;;;15.32;100.00
75991;BME280;64673;52.276;10.560;2023-08-06T06:15:35;99672.06;;;15.37;100.00
75991;BME280;64673;52.276;10.560;2023-08-06T06:18:00;99677.94;;;15.48;100.00
75991;BME280;64673;52.276;10.560;2023-08-06T06:20:25;99663.28;;;15.41;100.00
75991;BME280;64673;52.276;10.560;2023-08-06T06:22:51;99682.63;;;15.56;100.00
75991;BME280;64673;52.276;10.560;2023-08-06T06:25:16;99682.94;;;15.55;100.00
75991;BME280;64673;52.276;10.560;2023-08-06T06:27:41;99680.84;;;15.60;100.00
75991;BME280;64673;52.276;10.560;2023-08-06T06:30:07;99683.22;;;15.62;100.00
75991;BME280;64673;52.276;10.560;2023-08-06T06:32:33;99681.63;;;15.52;100.00
75991;BME280;64673;52.276;10.560;2023-08-06T06:34:59;99684.69;;;15.59;100.00
75991;BME280;64673;52.276;10.560;2023-08-06T06:37:25;99676.06;;;15.57;100.00
75991;BME280;64673;52.276;10.560;2023-08-06T06:39:50;99676.19;;;15.61;100.00
75991;BME280;64673;52.276;10.560;2023-08-06T06:42:15;99686.59;;;15.67;100.00
75991;BME280;64673;52.276;10.560;2023-08-06T06:44:41;99672.66;;;15.69;98.67
75991;BME280;64673;52.276;10.560;2023-08-06T06:47:06;99685.59;;;15.72;99.69
75991;BME280;64673;52.276;10.560;2023-08-06T06:49:32;99672.28;;;15.79;100.00
75991;BME280;64673;52.276;10.560;2023-08-06T06:51:57;99668.47;;;15.80;100.00
75991;BME280;64673;52.276;10.560;2023-08-06T06:54:22;99668.00;;;15.78;99.67
75991;BME280;64673;52.276;10.560;2023-08-06T06:56:48;99669.22;;;15.89;100.00
75991;BME280;64673;52.276;10.560;2023-08-06T06:59:13;99668.72;;;15.96;100.00
75991;BME280;64673;52.276;10.560;2023-08-06T07:01:38;99658.94;;;16.03;100.00
75991;BME280;64673;52.276;10.560;2023-08-06T07:04:04;99666.88;;;16.17;100.00
75991;BME280;64673;52.276;10.560;2023-08-06T07:06:30;99663.06;;;16.09;98.81
75991;BME280;64673;52.276;10.560;2023-08-06T07:08:56;99663.09;;;16.01;98.15
75991;BME280;64673;52.276;10.560;2023-08-06T07:11:21;99662.00;;;16.31;98.32
75991;BME280;64673;52.276;10.560;2023-08-06T07:13:47;99660.25;;;16.27;97.29
75991;BME280;64673;52.276;10.560;2023-08-06T07:16:12;99661.47;;;16.38;97.34
75991;BME280;64673;52.276;10.560;2023-08-06T07:18:37;99654.03;;;16.47;100.00
75991;BME280;64673;52.276;10.560;2023-08-06T07:21:03;99651.63;;;16.45;97.41
75991;BME280;64673;52.276;10.560;2023-08-06T07:23:28;99670.63;;;16.54;95.97
75991;BME280;64673;52.276;10.560;2023-08-06T07:25:54;99666.53;;;16.48;95.55
75991;BME280;64673;52.276;10.560;2023-08-06T07:28:19;99669.31;;;16.60;98.57
75991;BME280;64673;52.276;10.560;2023-08-06T07:30:45;99668.03;;;16.66;99.86
75991;BME280;64673;52.276;10.560;2023-08-06T07:33:11;99662.25;;;16.68;97.92
75991;BME280;64673;52.276;10.560;2023-08-06T07:35:37;99663.13;;;16.80;97.75
75991;BME280;64673;52.276;10.560;2023-08-06T07:38:03;99656.31;;;16.66;94.79
75991;BME280;64673;52.276;10.560;2023-08-06T07:40:28;99659.59;;;16.80;94.71
75991;BME280;64673;52.276;10.560;2023-08-06T07:42:54;99672.00;;;16.90;94.46
75991;BME280;64673;52.276;10.560;2023-08-06T07:45:20;99660.72;;;17.00;96.03
75991;BME280;64673;52.276;10.560;2023-08-06T07:47:46;99661.13;;;16.90;96.13
75991;BME280;64673;52.276;10.560;2023-08-06T07:50:11;99665.22;;;16.96;91.71
75991;BME280;64673;52.276;10.560;2023-08-06T07:52:37;99665.22;;;16.96;92.25
75991;BME280;64673;52.276;10.560;2023-08-06T07:55:02;99658.19;;;17.15;93.95
75991;BME280;64673;52.276;10.560;2023-08-06T07:57:32;99664.66;;;17.23;92.96
75991;BME280;64673;52.276;10.560;2023-08-06T07:59:59;99662.66;;;17.32;92.04
75991;BME280;64673;52.276;10.560;2023-08-06T08:02:25;99650.28;;;17.35;92.00
75991;BME280;64673;52.276;10.560;2023-08-06T08:04:50;99665.19;;;17.37;91.38
75991;BME280;64673;52.276;10.560;2023-08-06T08:07:16;99653.59;;;17.40;90.88
75991;BME280;64673;52.276;10.560;2023-08-06T08:09:41;99658.59;;;17.50;88.40
75991;BME280;64673;52.276;10.560;2023-08-06T08:12:06;99662.81;;;17.48;90.17
75991;BME280;64673;52.276;10.560;2023-08-06T08:14:32;99655.19;;;17.41;87.03
75991;BME280;64673;52.276;10.560;2023-08-06T08:17:04;99649.72;;;17.41;86.11
75991;BME280;64673;52.276;10.560;2023-08-06T08:19:30;99653.94;;;17.51;86.25
75991;BME280;64673;52.276;10.560;2023-08-06T08:21:56;99642.25;;;17.50;86.68
75991;BME280;64673;52.276;10.560;2023-08-06T08:24:22;99641.00;;;17.60;88.74
75991;BME280;64673;52.276;10.560;2023-08-06T08:26:53;99637.78;;;17.79;90.39
75991;BME280;64673;52.276;10.560;2023-08-06T08:29:19;99644.16;;;18.07;89.13
75991;BME280;64673;52.276;10.560;2023-08-06T08:31:45;99634.16;;;17.99;88.08
75991;BME280;64673;52.276;10.560;2023-08-06T08:34:13;99642.00;;;18.01;85.92
75991;BME280;64673;52.276;10.560;2023-08-06T08:36:38;99634.59;;;18.01;85.27
75991;BME280;64673;52.276;10.560;2023-08-06T08:39:03;99641.88;;;17.85;84.32
75991;BME280;64673;52.276;10.560;2023-08-06T08:41:30;99636.44;;;17.85;85.95
75991;BME280;64673;52.276;10.560;2023-08-06T08:43:58;99633.38;;;18.11;86.63
75991;BME280;64673;52.276;10.560;2023-08-06T08:46:26;99631.44;;;18.11;85.28
75991;BME280;64673;52.276;10.560;2023-08-06T08:48:53;99630.59;;;18.23;86.93
75991;BME280;64673;52.276;10.560;2023-08-06T08:51:19;99632.97;;;18.49;85.08
75991;BME280;64673;52.276;10.560;2023-08-06T08:53:45;99629.09;;;18.50;86.24
75991;BME280;64673;52.276;10.560;2023-08-06T08:56:12;99633.78;;;18.61;84.76
75991;BME280;64673;52.276;10.560;2023-08-06T08:58:39;99628.84;;;18.67;83.51
75991;BME280;64673;52.276;10.560;2023-08-06T09:01:04;99640.22;;;18.69;82.79
75991;BME280;64673;52.276;10.560;2023-08-06T09:03:30;99628.47;;;18.81;83.57
75991;BME280;64673;52.276;10.560;2023-08-06T09:05:57;99628.97;;;18.98;83.73
75991;BME280;64673;52.276;10.560;2023-08-06T09:08:27;99625.09;;;18.72;80.15
75991;BME280;64673;52.276;10.560;2023-08-06T09:10:56;99632.66;;;18.90;83.01
75991;BME280;64673;52.276;10.560;2023-08-06T09:13:23;99624.72;;;18.85;81.04
75991;BME280;64673;52.276;10.560;2023-08-06T09:15:48;99632.31;;;18.92;78.44
75991;BME280;64673;52.276;10.560;2023-08-06T09:18:25;99630.91;;;18.98;76.63
75991;BME280;64673;52.276;10.560;2023-08-06T09:20:51;99626.63;;;19.13;78.23
75991;BME280;64673;52.276;10.560;2023-08-06T09:23:16;99630.78;;;19.07;73.74
75991;BME280;64673;52.276;10.560;2023-08-06T09:25:41;99623.00;;;19.09;74.29
75991;BME280;64673;52.276;10.560;2023-08-06T09:28:07;99620.03;;;19.14;76.52
75991;BME280;64673;52.276;10.560;2023-08-06T09:30:37;99622.25;;;19.39;77.69
75991;BME280;64673;52.276;10.560;2023-08-06T09:33:03;99611.44;;;19.43;76.50
75991;BME280;64673;52.276;10.560;2023-08-06T09:35:31;99619.19;;;19.41;78.34
75991;BME280;64673;52.276;10.560;2023-08-06T09:38:07;99614.06;;;19.24;78.30
75991;BME280;64673;52.276;10.560;2023-08-06T09:40:33;99617.03;;;19.19;75.58
75991;BME280;64673;52.276;10.560;2023-08-06T09:43:00;99595.53;;;19.33;75.41
75991;BME280;64673;52.276;10.560;2023-08-06T09:45:34;99611.19;;;19.64;73.22
75991;BME280;64673;52.276;10.560;2023-08-06T09:48:02;99609.47;;;19.28;72.62
75991;BME280;64673;52.276;10.560;2023-08-06T09:50:30;99613.31;;;19.55;74.07
75991;BME280;64673;52.276;10.560;2023-08-06T09:52:59;99613.78;;;19.57;72.31
75991;BME280;64673;52.276;10.560;2023-08-06T09:55:26;99609.84;;;19.42;70.40
75991;BME280;64673;52.276;10.560;2023-08-06T09:57:52;99610.28;;;19.44;70.82
75991;BME280;64673;52.276;10.560;2023-08-06T10:00:17;99604.47;;;19.46;69.66
75991;BME280;64673;52.276;10.560;2023-08-06T10:02:43;99607.94;;;19.58;71.62
75991;BME280;64673;52.276;10.560;2023-08-06T10:05:09;99598.22;;;19.61;68.96
75991;BME280;64673;52.276;10.560;2023-08-06T10:07:35;99604.34;;;19.70;68.90
75991;BME280;64673;52.276;10.560;2023-08-06T10:10:02;99601.25;;;19.56;69.21
75991;BME280;64673;52.276;10.560;2023-08-06T10:12:29;99610.13;;;19.37;67.45
75991;BME280;64673;52.276;10.560;2023-08-06T10:14:57;99604.38;;;19.26;68.31
75991;BME280;64673;52.276;10.560;2023-08-06T10:17:24;99596.13;;;19.54;69.58
75991;BME280;64673;52.276;10.560;2023-08-06T10:19:51;99591.34;;;19.83;70.62
75991;BME280;64673;52.276;10.560;2023-08-06T10:22:20;99581.09;;;19.95;68.28
75991;BME280;64673;52.276;10.560;2023-08-06T10:24:57;99584.81;;;19.71;67.88
75991;BME280;64673;52.276;10.560;2023-08-06T10:27:34;99584.63;;;19.96;68.87
75991;BME280;64673;52.276;10.560;2023-08-06T10:30:31;99574.38;;;19.93;65.14
75991;BME280;64673;52.276;10.560;2023-08-06T10:33:03;99583.22;;;20.56;66.27
75991;BME280;64673;52.276;10.560;2023-08-06T10:35:37;99589.28;;;20.11;65.33
75991;BME280;64673;52.276;10.560;2023-08-06T10:40:29;99573.97;;;19.59;64.05
75991;BME280;64673;52.276;10.560;2023-08-06T10:42:58;99542.72;;;19.45;66.46
75991;BME280;64673;52.276;10.560;2023-08-06T10:45:23;99561.44;;;19.74;67.79
75991;BME280;64673;52.276;10.560;2023-08-06T10:47:54;99568.34;;;20.03;66.35
75991;BME280;64673;52.276;10.560;2023-08-06T10:50:20;99567.94;;;20.01;65.21
75991;BME280;64673;52.276;10.560;2023-08-06T10:52:46;99562.50;;;20.20;64.50
75991;BME280;64673;52.276;10.560;2023-08-06T10:55:12;99562.81;;;19.99;63.74
75991;BME280;64673;52.276;10.560;2023-08-06T10:57:37;99559.91;;;20.27;64.63
75991;BME280;64673;52.276;10.560;2023-08-06T11:00:07;99562.47;;;20.36;64.51
75991;BME280;64673;52.276;10.560;2023-08-06T11:02:36;99548.28;;;20.50;64.66
75991;BME280;64673;52.276;10.560;2023-08-06T11:05:08;99541.34;;;20.56;64.31
75991;BME280;64673;52.276;10.560;2023-08-06T11:07:35;99551.31;;;20.44;64.00
75991;BME280;64673;52.276;10.560;2023-08-06T11:10:04;99540.56;;;20.36;65.25
75991;BME280;64673;52.276;10.560;2023-08-06T11:12:31;99544.53;;;20.38;64.91
75991;BME280;64673;52.276;10.560;2023-08-06T11:14:57;99547.34;;;20.07;65.42
75991;BME280;64673;52.276;10.560;2023-08-06T11:17:22;99530.50;;;20.24;67.91
75991;BME280;64673;52.276;10.560;2023-08-06T11:19:48;99545.13;;;20.13;63.92
75991;BME280;64673;52.276;10.560;2023-08-06T11:22:14;99543.59;;;19.80;63.23
75991;BME280;64673;52.276;10.560;2023-08-06T11:24:40;99536.84;;;20.28;64.35
75991;BME280;64673;52.276;10.560;2023-08-06T11:27:16;99529.53;;;20.71;64.15
75991;BME280;64673;52.276;10.560;2023-08-06T11:29:42;99519.25;;;20.87;62.06
75991;BME280;64673;52.276;10.560;2023-08-06T11:32:08;99518.06;;;20.85;61.82
75991;BME280;64673;52.276;10.560;2023-08-06T11:34:34;99518.09;;;20.88;60.56
75991;BME280;64673;52.276;10.560;2023-08-06T11:37:00;99527.47;;;21.06;62.67
75991;BME280;64673;52.276;10.560;2023-08-06T11:39:27;99498.28;;;21.40;61.19
75991;BME280;64673;52.276;10.560;2023-08-06T11:41:52;99517.28;;;21.30;60.59
75991;BME280;64673;52.276;10.560;2023-08-06T11:44:19;99517.84;;;21.39;59.38
75991;BME280;64673;52.276;10.560;2023-08-06T11:46:55;99524.59;;;21.45;60.94
75991;BME280;64673;52.276;10.560;2023-08-06T11:49:40;99514.69;;;21.37;60.62
75991;BME280;64673;52.276;10.560;2023-08-06T11:52:20;99522.47;;;21.35;60.83
75991;BME280;64673;52.276;10.560;2023-08-06T11:54:47;99512.00;;;21.17;58.69
75991;BME280;64673;52.276;10.560;2023-08-06T11:57:13;99511.56;;;21.15;60.35
75991;BME280;64673;52.276;10.560;2023-08-06T11:59:39;99507.38;;;21.22;59.94
75991;BME280;64673;52.276;10.560;2023-08-06T12:02:05;99508.88;;;21.42;60.91
75991;BME280;64673;52.276;10.560;2023-08-06T12:07:28;99496.41;;;21.71;59.37
75991;BME280;64673;52.276;10.560;2023-08-06T12:09:54;99506.84;;;21.88;58.59
75991;BME280;64673;52.276;10.560;2023-08-06T12:12:20;99495.41;;;22.09;58.55
75991;BME280;64673;52.276;10.560;2023-08-06T12:14:45;99495.94;;;21.91;58.34
75991;BME280;64673;52.276;10.560;2023-08-06T12:17:10;99500.19;;;21.89;57.85
75991;BME280;64673;52.276;10.560;2023-08-06T12:19:36;99499.19;;;21.48;59.44
75991;BME280;64673;52.276;10.560;2023-08-06T12:22:01;99488.34;;;21.32;59.53
75991;BME280;64673;52.276;10.560;2023-08-06T12:24:28;99479.22;;;21.25;60.11
75991;BME280;64673;52.276;10.560;2023-08-06T12:26:56;99487.44;;;21.25;60.99
75991;BME280;64673;52.276;10.560;2023-08-06T12:29:23;99469.22;;;21.88;60.05
75991;BME280;64673;52.276;10.560;2023-08-06T12:31:48;99484.41;;;22.09;56.72
75991;BME280;64673;52.276;10.560;2023-08-06T12:34:13;99482.31;;;21.99;56.50
75991;BME280;64673;52.276;10.560;2023-08-06T12:36:39;99483.28;;;21.87;56.42
75991;BME280;64673;52.276;10.560;2023-08-06T12:39:04;99481.88;;;21.44;54.20
75991;BME280;64673;52.276;10.560;2023-08-06T12:41:29;99484.28;;;21.23;55.70
75991;BME280;64673;52.276;10.560;2023-08-06T12:43:55;99468.34;;;21.09;59.22
75991;BME280;64673;52.276;10.560;2023-08-06T12:46:20;99481.97;;;21.25;60.75
75991;BME280;64673;52.276;10.560;2023-08-06T12:48:45;99472.16;;;21.24;58.25
75991;BME280;64673;52.276;10.560;2023-08-06T12:51:11;99465.38;;;21.17;60.40
75991;BME280;64673;52.276;10.560;2023-08-06T12:53:36;99475.16;;;21.41;57.95